Current | Forecast
Updated: 4:00 PM CET on December 13, 2017
Observed at Bratislava, Austria
Temperature 2°C
Windchill 0°C
Humidity 75%
Dew Point -2°C
Wind SSE at 7 km/h
Pressure 1016 hPa (Steady)
Conditions Clear
Visibility -
UV N/A
Clouds
Yesterday's Maximum 15°C
Yesterday's Minimum 4°C approx.
Yesterday's Heating Degree Days 16 approx.
Sunrise7:32 AM CET
Sunset3:59 PM CET
Moon Rise2:19 AM CET
Moon Set1:48 PM CET
Moon PhaseMoon Phase
Waning Crescent
Raw METARMETAR LZIB 131500Z 16004KT CAVOK 02/M02 Q1016 NOSIG


Monday
. High: 66° F.
Tuesday
. High: 75° F.
Wednesday
. High: 80° F.
Thursday
. High: 71° F.
Friday
. High: 69° F.
Saturday
. High: 73° F.
Sunday
. High: 82° F.
Monday
. High: 68° F.

Units: English | Metric

Find the Weather for any City, State or Zipcode, or Country:

U.S. State List | Severe Weather | Tropical Storms | Ski Conditions
United States | Canada | Central America | South America | Asia | Europe | Australia | Africa | Islands

Weather Underground

© Copyright 2017
The Weather Company, LLC